Time;durP1;ratioP1;P1;durP2;ratioP2;P2;SDS_P1;SDS_P2;PMS_P1;PMS_P2;Temp;Humidity;BMP_temperature;BMP_pressure;BME280_temperature;BME280_humidity;BME280_pressure;Samples;Min_cycle;Max_cycle;Signal;HPM_P1;HPM_P2
2021/11/09 00:01:37;;;;;;;;;;;13.10;99.90;;;;;;4999248;28;1902;-57
2021/11/09 00:04:06;;;;;;;;;;;13.10;99.90;;;;;;4999508;28;916;-57
2021/11/09 00:06:39;;;;;;;;;;;13.10;99.90;;;;;;4999647;28;1040;-57
2021/11/09 00:09:33;;;;;;;;;;;13.10;99.90;;;;;;4999764;28;890;-57
2021/11/09 00:11:52;;;;;;;;;;;13.10;99.90;;;;;;4999034;28;1411;-57
2021/11/09 00:14:18;;;;;;;;;;;13.10;99.90;;;;;;4999140;28;838;-57
2021/11/09 00:16:44;;;;;;;;;;;13.00;99.90;;;;;;4999103;28;802;-57
2021/11/09 00:19:10;;;;;;;;;;;13.00;99.90;;;;;;4999227;28;744;-57
2021/11/09 00:21:36;;;;;;;;;;;13.00;99.90;;;;;;4999123;28;1911;-57
2021/11/09 00:24:03;;;;;;;;;;;13.00;99.90;;;;;;4999368;28;827;-57
2021/11/09 00:26:29;;;;;;;;;;;13.00;99.90;;;;;;4998968;28;917;-57
2021/11/09 00:28:55;;;;;;;;;;;13.00;99.90;;;;;;4999021;28;910;-57
2021/11/09 00:31:22;;;;;;;;;;;13.00;99.90;;;;;;4999135;28;994;-57
2021/11/09 00:33:48;;;;;;;;;;;13.00;99.90;;;;;;4999239;28;870;-57
2021/11/09 00:36:14;;;;;;;;;;;13.00;99.90;;;;;;4998923;28;849;-57
2021/11/09 00:38:40;;;;;;;;;;;13.00;99.90;;;;;;4998856;28;765;-57
2021/11/09 00:41:06;;;;;;;;;;;13.00;99.90;;;;;;4998921;28;2208;-57
2021/11/09 00:43:32;;;;;;;;;;;13.00;99.90;;;;;;4998212;28;963;-57
2021/11/09 00:45:58;;;;;;;;;;;13.00;99.90;;;;;;4998546;28;1133;-57
2021/11/09 00:48:24;;;;;;;;;;;13.00;99.90;;;;;;4998951;28;1025;-57
2021/11/09 00:50:53;;;;;;;;;;;12.90;99.90;;;;;;4998966;28;976;-57
2021/11/09 00:53:19;;;;;;;;;;;12.90;99.90;;;;;;4998499;28;1039;-57
2021/11/09 00:55:46;;;;;;;;;;;12.90;99.90;;;;;;4998547;28;885;-57
2021/11/09 00:58:12;;;;;;;;;;;12.90;99.90;;;;;;4998646;28;832;-57
2021/11/09 01:00:38;;;;;;;;;;;12.90;99.90;;;;;;4998076;28;1965;-57
2021/11/09 01:03:05;;;;;;;;;;;12.90;99.90;;;;;;4998275;28;1004;-57
2021/11/09 01:05:33;;;;;;;;;;;12.90;99.90;;;;;;4992388;28;1091;-58
2021/11/09 01:08:00;;;;;;;;;;;12.90;99.90;;;;;;4992260;28;950;-57
2021/11/09 01:10:29;;;;;;;;;;;12.90;99.90;;;;;;4998345;28;783;-57
2021/11/09 01:12:55;;;;;;;;;;;12.90;99.90;;;;;;4998261;28;826;-57
2021/11/09 01:15:22;;;;;;;;;;;12.90;99.90;;;;;;4998194;28;989;-57
2021/11/09 01:17:49;;;;;;;;;;;12.90;99.90;;;;;;4998009;28;888;-57
2021/11/09 01:20:16;;;;;;;;;;;12.90;99.90;;;;;;4998521;28;1977;-57
2021/11/09 01:22:45;;;;;;;;;;;12.90;99.90;;;;;;4997907;28;1052;-58
2021/11/09 01:25:11;;;;;;;;;;;12.90;99.90;;;;;;4992458;28;857;-57
2021/11/09 01:27:37;;;;;;;;;;;12.90;99.90;;;;;;4997132;28;1322;-57
2021/11/09 01:30:05;;;;;;;;;;;12.90;99.90;;;;;;4997512;28;778;-57
2021/11/09 01:32:31;;;;;;;;;;;12.90;99.90;;;;;;4998368;28;947;-57
2021/11/09 01:34:57;;;;;;;;;;;12.90;99.90;;;;;;4997230;28;1133;-57
2021/11/09 01:37:23;;;;;;;;;;;12.90;99.90;;;;;;4997718;28;897;-57
2021/11/09 01:39:49;;;;;;;;;;;12.90;99.90;;;;;;4997414;28;1081;-57
2021/11/09 01:42:15;;;;;;;;;;;12.90;99.90;;;;;;4997758;28;1903;-57
2021/11/09 01:44:41;;;;;;;;;;;12.90;99.90;;;;;;4997469;28;817;-57
2021/11/09 01:47:07;;;;;;;;;;;12.90;99.90;;;;;;4997599;28;876;-57
2021/11/09 01:49:33;;;;;;;;;;;12.90;99.90;;;;;;4997991;28;889;-57
2021/11/09 01:51:59;;;;;;;;;;;12.90;99.90;;;;;;4997810;28;773;-57
2021/11/09 01:54:26;;;;;;;;;;;12.80;99.90;;;;;;4997796;28;914;-57
2021/11/09 01:56:52;;;;;;;;;;;12.90;99.90;;;;;;4997569;28;1032;-57
2021/11/09 01:59:18;;;;;;;;;;;12.80;99.90;;;;;;4997186;28;870;-57
2021/11/09 02:01:44;;;;;;;;;;;12.80;99.90;;;;;;4996956;28;1903;-57
2021/11/09 02:04:10;;;;;;;;;;;12.80;99.90;;;;;;4997242;28;900;-57
2021/11/09 02:06:36;;;;;;;;;;;12.80;99.90;;;;;;4997134;28;919;-57
2021/11/09 02:09:07;;;;;;;;;;;12.80;99.90;;;;;;4997366;28;923;-57
2021/11/09 02:11:33;;;;;;;;;;;12.80;99.90;;;;;;4997160;28;842;-57
2021/11/09 02:13:59;;;;;;;;;;;12.80;99.90;;;;;;4995800;28;1355;-57
2021/11/09 02:16:25;;;;;;;;;;;12.80;99.90;;;;;;4996850;28;864;-57
2021/11/09 02:18:51;;;;;;;;;;;12.80;99.90;;;;;;4996986;28;1104;-57
2021/11/09 02:21:17;;;;;;;;;;;12.80;99.90;;;;;;4996889;28;1968;-57
2021/11/09 02:23:44;;;;;;;;;;;12.80;99.90;;;;;;4996876;28;902;-57
2021/11/09 02:26:10;;;;;;;;;;;12.80;99.90;;;;;;4997061;28;998;-57
2021/11/09 02:28:37;;;;;;;;;;;12.70;99.90;;;;;;4996822;28;1027;-57
2021/11/09 02:31:04;;;;;;;;;;;12.70;99.90;;;;;;4996642;28;873;-57
2021/11/09 02:33:30;;;;;;;;;;;12.70;99.90;;;;;;4997035;28;963;-57
2021/11/09 02:35:55;;;;;;;;;;;12.70;99.90;;;;;;4996944;28;995;-57
2021/11/09 02:38:22;;;;;;;;;;;12.70;99.90;;;;;;4997008;28;811;-57
2021/11/09 02:40:48;;;;;;;;;;;12.70;99.90;;;;;;4993573;28;1906;-57
2021/11/09 02:43:15;;;;;;;;;;;12.70;99.90;;;;;;4994924;28;1425;-57
2021/11/09 02:48:28;;;;;;;;;;;12.70;99.90;;;;;;4996741;28;861;-57
2021/11/09 02:51:02;;;;;;;;;;;12.60;99.90;;;;;;4995676;28;773;-57
2021/11/09 02:53:37;;;;;;;;;;;12.60;99.90;;;;;;4996713;28;875;-57
2021/11/09 02:56:20;;;;;;;;;;;12.60;99.90;;;;;;4994034;28;878;-57
2021/11/09 03:01:46;;;;;;;;;;;12.60;99.90;;;;;;4991965;28;1975;-56
2021/11/09 03:07:03;;;;;;;;;;;12.60;99.90;;;;;;5015177;28;838;-56
2021/11/09 03:09:53;;;;;;;;;;;12.60;99.90;;;;;;5015212;28;901;-56
2021/11/09 03:12:20;;;;;;;;;;;12.60;99.90;;;;;;4997285;28;854;-56
2021/11/09 03:14:47;;;;;;;;;;;12.50;99.90;;;;;;4992766;28;1059;-56
2021/11/09 03:17:21;;;;;;;;;;;12.50;99.90;;;;;;5015085;28;827;-56
2021/11/09 03:46:50;;;;;;;;;;;12.40;99.90;;;;;;5000565;28;786;-56
2021/11/09 03:49:18;;;;;;;;;;;12.40;99.90;;;;;;5000923;28;889;-56
2021/11/09 03:51:44;;;;;;;;;;;12.40;99.90;;;;;;5006240;28;881;-56
2021/11/09 03:54:13;;;;;;;;;;;12.40;99.90;;;;;;5000778;28;815;-56
2021/11/09 03:59:14;;;;;;;;;;;12.40;99.90;;;;;;5000561;28;877;-56
2021/11/09 04:02:03;;;;;;;;;;;12.40;99.90;;;;;;4995906;28;1906;-56
2021/11/09 04:07:07;;;;;;;;;;;12.40;99.90;;;;;;4999485;28;797;-56
2021/11/09 04:20:27;;;;;;;;;;;12.30;99.90;;;;;;4999267;28;798;-56
2021/11/09 04:28:21;;;;;;;;;;;12.30;99.90;;;;;;4999144;28;877;-56
2021/11/09 05:10:12;;;;;;;;;;;12.20;99.90;;;;;;4998358;28;1195;-56
2021/11/09 05:12:38;;;;;;;;;;;12.20;99.90;;;;;;4998553;28;1318;-56
2021/11/09 05:15:04;;;;;;;;;;;12.20;99.90;;;;;;4998315;28;1109;-56
2021/11/09 05:17:31;;;;;;;;;;;12.20;99.90;;;;;;4996163;28;803;-56
2021/11/09 05:19:57;;;;;;;;;;;12.20;99.90;;;;;;4998105;28;893;-57
2021/11/09 05:22:22;;;;;;;;;;;12.20;99.90;;;;;;4998046;28;1906;-57
2021/11/09 05:24:48;;;;;;;;;;;12.20;99.90;;;;;;4998347;28;782;-57
2021/11/09 05:27:15;;;;;;;;;;;12.20;99.90;;;;;;4996548;28;1298;-56
2021/11/09 05:29:43;;;;;;;;;;;12.20;99.90;;;;;;4997825;28;817;-57
2021/11/09 05:32:09;;;;;;;;;;;12.20;99.90;;;;;;4997462;28;906;-56
2021/11/09 05:34:35;;;;;;;;;;;12.20;99.90;;;;;;4998159;28;752;-57
2021/11/09 05:37:02;;;;;;;;;;;12.20;99.90;;;;;;4998052;28;883;-57
2021/11/09 05:39:32;;;;;;;;;;;12.20;99.90;;;;;;4997741;28;900;-57
2021/11/09 05:41:59;;;;;;;;;;;12.10;99.90;;;;;;4997608;28;1906;-57
2021/11/09 05:44:26;;;;;;;;;;;12.20;99.90;;;;;;4997833;28;770;-56
2021/11/09 05:46:52;;;;;;;;;;;12.10;99.90;;;;;;4997282;28;827;-56
2021/11/09 05:49:18;;;;;;;;;;;12.10;99.90;;;;;;4997063;28;905;-56
2021/11/09 05:51:44;;;;;;;;;;;12.20;99.90;;;;;;4997504;28;764;-56
2021/11/09 05:54:10;;;;;;;;;;;12.20;99.90;;;;;;4997571;28;833;-56
2021/11/09 05:56:36;;;;;;;;;;;12.20;99.90;;;;;;4997372;28;977;-56
2021/11/09 05:59:02;;;;;;;;;;;12.20;99.90;;;;;;4997363;28;1121;-57
2021/11/09 06:01:28;;;;;;;;;;;12.30;99.90;;;;;;5009394;28;1898;-57
2021/11/09 06:03:55;;;;;;;;;;;12.40;99.90;;;;;;4997340;28;866;-57
2021/11/09 06:06:21;;;;;;;;;;;12.50;99.90;;;;;;4997213;28;889;-57
2021/11/09 06:08:50;;;;;;;;;;;12.60;99.90;;;;;;4997248;28;832;-57
2021/11/09 06:11:16;;;;;;;;;;;12.70;99.90;;;;;;4995628;28;1020;-57
2021/11/09 06:13:42;;;;;;;;;;;12.90;99.90;;;;;;4997392;28;956;-57
2021/11/09 06:16:09;;;;;;;;;;;13.10;99.90;;;;;;4997101;28;868;-57
2021/11/09 06:18:34;;;;;;;;;;;13.20;99.90;;;;;;4995577;28;871;-57
2021/11/09 06:21:00;;;;;;;;;;;13.40;99.90;;;;;;4996972;28;1960;-57
2021/11/09 06:23:26;;;;;;;;;;;13.50;99.90;;;;;;4997064;28;826;-56
2021/11/09 06:25:52;;;;;;;;;;;13.70;99.90;;;;;;4996946;28;817;-56
2021/11/09 06:28:21;;;;;;;;;;;13.80;99.90;;;;;;4994952;28;878;-57
2021/11/09 06:30:48;;;;;;;;;;;14.00;99.90;;;;;;4996553;28;895;-57
2021/11/09 06:33:14;;;;;;;;;;;14.10;99.90;;;;;;4996815;28;758;-57
2021/11/09 06:35:40;;;;;;;;;;;14.20;99.90;;;;;;4996351;28;838;-57
2021/11/09 06:38:06;;;;;;;;;;;14.30;99.90;;;;;;4996761;28;955;-57
2021/11/09 06:40:32;;;;;;;;;;;14.50;99.90;;;;;;4996751;28;830;-56
2021/11/09 06:42:58;;;;;;;;;;;14.60;99.90;;;;;;4979961;28;2428;-57
2021/11/09 06:45:25;;;;;;;;;;;14.70;99.90;;;;;;4996693;28;819;-57
2021/11/09 06:47:51;;;;;;;;;;;14.80;99.90;;;;;;4996490;28;1204;-57
2021/11/09 06:50:18;;;;;;;;;;;14.90;99.90;;;;;;4996508;28;901;-58
2021/11/09 06:52:44;;;;;;;;;;;15.00;99.90;;;;;;4980196;28;775;-56
2021/11/09 06:55:11;;;;;;;;;;;15.10;99.90;;;;;;4996549;28;813;-56
2021/11/09 06:57:36;;;;;;;;;;;15.10;99.90;;;;;;4996377;28;861;-56
2021/11/09 07:00:04;;;;;;;;;;;15.10;99.90;;;;;;4996428;28;762;-57
2021/11/09 07:02:32;;;;;;;;;;;15.20;99.90;;;;;;4996260;28;1962;-57
2021/11/09 07:05:05;;;;;;;;;;;15.20;99.90;;;;;;4996700;28;1010;-57
2021/11/09 07:07:31;;;;;;;;;;;15.10;99.90;;;;;;4996440;28;1166;-57
2021/11/09 07:09:57;;;;;;;;;;;15.10;99.90;;;;;;4996406;28;842;-56
2021/11/09 07:12:24;;;;;;;;;;;15.00;99.90;;;;;;4980028;28;1604;-56
2021/11/09 07:14:51;;;;;;;;;;;15.00;99.90;;;;;;4996325;28;790;-56
2021/11/09 07:17:17;;;;;;;;;;;14.90;99.90;;;;;;4996369;28;766;-57
2021/11/09 07:19:49;;;;;;;;;;;14.80;99.90;;;;;;4996452;28;787;-57
2021/11/09 07:22:15;;;;;;;;;;;14.80;99.90;;;;;;4996309;28;1911;-57
2021/11/09 07:24:41;;;;;;;;;;;14.70;99.90;;;;;;4996410;28;1203;-57
2021/11/09 07:27:08;;;;;;;;;;;14.60;99.90;;;;;;4995382;28;1251;-57
2021/11/09 07:29:34;;;;;;;;;;;14.60;99.90;;;;;;4996238;28;1685;-57
2021/11/09 07:32:00;;;;;;;;;;;14.50;99.90;;;;;;4996110;28;821;-57
2021/11/09 07:34:26;;;;;;;;;;;14.50;99.90;;;;;;4996272;28;853;-57
2021/11/09 07:36:52;;;;;;;;;;;14.40;99.90;;;;;;4996099;28;1538;-57
2021/11/09 07:39:20;;;;;;;;;;;14.30;99.90;;;;;;4996421;28;826;-57
2021/11/09 07:41:47;;;;;;;;;;;14.30;99.90;;;;;;4996211;28;1966;-57
2021/11/09 07:44:13;;;;;;;;;;;14.20;99.90;;;;;;4996390;28;839;-57
2021/11/09 07:46:40;;;;;;;;;;;14.20;99.90;;;;;;4995825;28;819;-57
2021/11/09 07:49:06;;;;;;;;;;;14.10;99.90;;;;;;4996184;28;884;-57
2021/11/09 07:51:32;;;;;;;;;;;14.10;99.90;;;;;;4996043;28;809;-57
2021/11/09 07:54:00;;;;;;;;;;;14.00;99.90;;;;;;4995690;28;1041;-57
2021/11/09 07:56:31;;;;;;;;;;;14.00;99.90;;;;;;4991325;28;856;-57
2021/11/09 08:01:39;;;;;;;;;;;13.90;99.90;;;;;;4995576;28;1906;-57
2021/11/09 08:04:29;;;;;;;;;;;13.90;99.90;;;;;;4996302;28;1038;-57
2021/11/09 08:07:02;;;;;;;;;;;13.80;99.90;;;;;;4995761;28;1978;-57
2021/11/09 08:09:29;;;;;;;;;;;13.80;99.90;;;;;;4979728;28;933;-57
2021/11/09 08:11:59;;;;;;;;;;;13.70;99.90;;;;;;4997978;28;804;-57
2021/11/09 08:14:26;;;;;;;;;;;13.70;99.90;;;;;;4999723;28;850;-57
2021/11/09 08:16:52;;;;;;;;;;;13.80;99.90;;;;;;4998953;28;879;-57
2021/11/09 08:19:18;;;;;;;;;;;14.10;99.90;;;;;;4998912;28;1044;-57
2021/11/09 08:21:45;;;;;;;;;;;14.80;99.90;;;;;;4999098;28;1906;-57
2021/11/09 08:24:13;;;;;;;;;;;14.90;99.90;;;;;;4999237;28;826;-57
2021/11/09 08:26:39;;;;;;;;;;;14.60;99.90;;;;;;4999244;28;827;-57
2021/11/09 08:29:06;;;;;;;;;;;14.30;99.90;;;;;;4997476;28;1453;-57
2021/11/09 08:31:33;;;;;;;;;;;14.20;99.90;;;;;;4998818;28;883;-57
2021/11/09 08:33:59;;;;;;;;;;;14.10;99.90;;;;;;4999167;28;1037;-57
2021/11/09 08:36:29;;;;;;;;;;;14.00;99.90;;;;;;4998863;28;1271;-57
2021/11/09 08:39:05;;;;;;;;;;;14.00;99.90;;;;;;4999132;28;777;-57
2021/11/09 08:41:42;;;;;;;;;;;14.00;99.90;;;;;;4998875;28;1906;-57
2021/11/09 08:44:11;;;;;;;;;;;14.00;99.90;;;;;;4999093;28;875;-57
2021/11/09 08:46:42;;;;;;;;;;;14.00;99.90;;;;;;4998691;28;901;-57
2021/11/09 08:49:09;;;;;;;;;;;14.00;99.90;;;;;;4998655;28;778;-58
2021/11/09 08:51:39;;;;;;;;;;;14.00;99.90;;;;;;4998917;28;831;-58
2021/11/09 08:54:14;;;;;;;;;;;14.10;99.90;;;;;;4998914;28;880;-57
2021/11/09 08:56:55;;;;;;;;;;;14.10;99.90;;;;;;4998552;28;1046;-57
2021/11/09 09:04:52;;;;;;;;;;;14.10;99.90;;;;;;4998538;28;870;-57
2021/11/09 09:07:18;;;;;;;;;;;14.00;99.90;;;;;;4998516;28;909;-57
2021/11/09 09:09:44;;;;;;;;;;;14.00;99.90;;;;;;4998414;28;834;-58
2021/11/09 09:15:39;;;;;;;;;;;14.00;99.90;;;;;;5029400;22;1710;-56
2021/11/09 09:18:06;;;;;;;;;;;13.90;99.90;;;;;;5037575;28;999;-56
2021/11/09 09:20:40;;;;;;;;;;;13.90;99.90;;;;;;5037324;28;884;-56
2021/11/09 09:23:16;;;;;;;;;;;13.90;99.90;;;;;;5037317;28;1917;-56
2021/11/09 09:28:27;;;;;;;;;;;13.80;99.90;;;;;;5037522;28;881;-56
2021/11/09 09:31:07;;;;;;;;;;;13.80;99.90;;;;;;5037058;28;946;-56
2021/11/09 09:57:49;;;;;;;;;;;13.70;99.90;;;;;;5036811;28;771;-56
2021/11/09 10:00:15;;;;;;;;;;;13.70;99.90;;;;;;5036770;28;883;-56
2021/11/09 10:02:48;;;;;;;;;;;13.80;99.90;;;;;;5036651;28;1902;-56
2021/11/09 10:05:15;;;;;;;;;;;13.80;99.90;;;;;;5035808;28;865;-56
2021/11/09 10:07:42;;;;;;;;;;;13.80;99.90;;;;;;5036734;28;856;-56
2021/11/09 10:10:11;;;;;;;;;;;13.80;99.90;;;;;;5036569;28;875;-56
2021/11/09 10:12:38;;;;;;;;;;;13.90;99.90;;;;;;5036481;28;902;-56
2021/11/09 10:15:05;;;;;;;;;;;13.90;99.90;;;;;;5035926;28;1266;-56
2021/11/09 10:17:33;;;;;;;;;;;13.90;99.90;;;;;;5036603;28;878;-56
2021/11/09 10:20:08;;;;;;;;;;;13.90;99.90;;;;;;5036683;28;847;-56
2021/11/09 10:22:34;;;;;;;;;;;14.00;99.90;;;;;;5019088;28;1906;-56
2021/11/09 10:25:04;;;;;;;;;;;14.00;99.90;;;;;;5036566;28;950;-56
2021/11/09 10:27:32;;;;;;;;;;;14.00;99.90;;;;;;5036275;28;877;-57
2021/11/09 10:29:59;;;;;;;;;;;14.10;99.90;;;;;;5018122;28;937;-57
2021/11/09 10:32:29;;;;;;;;;;;14.10;99.90;;;;;;5035476;28;1124;-57
2021/11/09 10:34:59;;;;;;;;;;;14.20;99.90;;;;;;5035734;28;993;-57
2021/11/09 10:37:30;;;;;;;;;;;14.20;99.90;;;;;;5036229;28;1148;-57
2021/11/09 10:40:01;;;;;;;;;;;14.20;99.90;;;;;;5035715;28;816;-57
2021/11/09 10:42:28;;;;;;;;;;;14.30;99.90;;;;;;5035558;28;1906;-57
2021/11/09 10:44:57;;;;;;;;;;;14.40;99.90;;;;;;5035037;28;1082;-57
2021/11/09 10:47:26;;;;;;;;;;;14.40;99.90;;;;;;5035234;28;919;-57
2021/11/09 10:50:18;;;;;;;;;;;14.50;99.90;;;;;;5021842;28;1672;-57
2021/11/09 10:52:44;;;;;;;;;;;14.50;99.90;;;;;;5035828;28;1020;-57
2021/11/09 10:55:28;;;;;;;;;;;14.50;99.90;;;;;;5035352;28;873;-57
2021/11/09 11:03:38;;;;;;;;;;;14.60;99.90;;;;;;5036048;28;1965;-57
2021/11/09 11:06:22;;;;;;;;;;;14.70;99.90;;;;;;5035464;28;875;-57
2021/11/09 11:08:49;;;;;;;;;;;14.70;99.90;;;;;;5036063;28;799;-57
2021/11/09 11:11:15;;;;;;;;;;;14.70;99.90;;;;;;5035716;28;897;-57
2021/11/09 11:13:41;;;;;;;;;;;14.70;99.90;;;;;;5035720;28;1103;-57
2021/11/09 11:16:11;;;;;;;;;;;14.70;99.90;;;;;;5035443;28;904;-57
2021/11/09 11:18:39;;;;;;;;;;;14.70;99.90;;;;;;5035919;28;856;-57
2021/11/09 11:21:06;;;;;;;;;;;14.70;99.90;;;;;;5035572;28;1045;-57
2021/11/09 11:23:33;;;;;;;;;;;14.70;99.90;;;;;;5034952;28;1910;-57
2021/11/09 11:26:00;;;;;;;;;;;14.70;99.90;;;;;;5034854;28;845;-57
2021/11/09 11:28:27;;;;;;;;;;;14.70;99.90;;;;;;5035126;28;893;-57
2021/11/09 11:30:54;;;;;;;;;;;14.70;99.90;;;;;;5034587;28;819;-57
2021/11/09 11:33:20;;;;;;;;;;;14.70;99.90;;;;;;5035263;28;891;-57
2021/11/09 11:35:47;;;;;;;;;;;14.70;99.90;;;;;;5034189;28;1278;-57
2021/11/09 11:38:14;;;;;;;;;;;14.70;99.90;;;;;;5035857;28;892;-57
2021/11/09 11:40:40;;;;;;;;;;;14.60;99.90;;;;;;5034302;28;783;-57
2021/11/09 11:43:06;;;;;;;;;;;14.60;99.90;;;;;;5035380;28;1972;-57
2021/11/09 11:45:49;;;;;;;;;;;14.60;99.90;;;;;;5034915;28;1091;-57
2021/11/09 11:48:15;;;;;;;;;;;14.60;99.90;;;;;;5038837;28;891;-57
2021/11/09 11:50:41;;;;;;;;;;;14.50;99.90;;;;;;5038410;28;876;-57
2021/11/09 11:53:07;;;;;;;;;;;14.50;99.90;;;;;;5034003;28;842;-57
2021/11/09 11:55:34;;;;;;;;;;;14.50;99.90;;;;;;5039300;28;799;-57
2021/11/09 11:58:07;;;;;;;;;;;14.50;99.90;;;;;;5039240;28;1001;-57
2021/11/09 12:00:40;;;;;;;;;;;14.50;99.90;;;;;;5038955;28;778;-57
2021/11/09 12:03:18;;;;;;;;;;;14.50;99.90;;;;;;5038858;28;1906;-57
2021/11/09 12:05:45;;;;;;;;;;;14.50;99.90;;;;;;5038851;28;922;-57
2021/11/09 12:08:14;;;;;;;;;;;14.50;99.90;;;;;;5038852;28;847;-57
2021/11/09 12:10:49;;;;;;;;;;;14.50;99.90;;;;;;5038690;28;908;-57
2021/11/09 12:13:16;;;;;;;;;;;14.50;99.90;;;;;;5038139;28;1133;-57
2021/11/09 12:15:51;;;;;;;;;;;14.50;99.90;;;;;;5037548;28;1081;-56
2021/11/09 12:18:32;;;;;;;;;;;14.50;99.90;;;;;;5038448;28;874;-56
2021/11/09 12:21:01;;;;;;;;;;;14.50;99.90;;;;;;5038656;28;806;-57
2021/11/09 12:23:30;;;;;;;;;;;14.50;99.90;;;;;;5038523;28;1910;-57
2021/11/09 12:25:56;;;;;;;;;;;14.50;99.90;;;;;;5021414;28;970;-57
2021/11/09 12:28:38;;;;;;;;;;;14.50;99.90;;;;;;5038722;28;860;-57
2021/11/09 12:31:21;;;;;;;;;;;14.40;99.90;;;;;;5038168;28;814;-57
2021/11/09 12:33:49;;;;;;;;;;;14.40;99.90;;;;;;5038639;28;756;-57
2021/11/09 12:36:17;;;;;;;;;;;14.40;99.90;;;;;;5037949;28;994;-57
2021/11/09 12:38:43;;;;;;;;;;;14.40;99.90;;;;;;5038654;28;865;-57
2021/11/09 12:41:10;;;;;;;;;;;14.40;99.90;;;;;;5038104;28;853;-57
2021/11/09 12:43:39;;;;;;;;;;;14.40;99.90;;;;;;5038125;28;1902;-57
2021/11/09 12:46:08;;;;;;;;;;;14.40;99.90;;;;;;5018636;28;1160;-57
2021/11/09 12:48:49;;;;;;;;;;;14.40;99.90;;;;;;5038142;28;854;-57
2021/11/09 12:51:16;;;;;;;;;;;14.40;99.90;;;;;;5037989;28;870;-57
2021/11/09 12:53:47;;;;;;;;;;;14.40;99.90;;;;;;5038269;28;904;-57
2021/11/09 12:56:18;;;;;;;;;;;14.40;99.90;;;;;;5037363;28;950;-57
2021/11/09 12:58:50;;;;;;;;;;;14.40;99.90;;;;;;5037996;28;763;-57
2021/11/09 13:01:24;;;;;;;;;;;14.30;99.90;;;;;;5032941;28;767;-57
2021/11/09 13:04:01;;;;;;;;;;;14.30;99.90;;;;;;5037463;28;1965;-57
2021/11/09 13:06:36;;;;;;;;;;;14.30;99.90;;;;;;5037729;28;862;-57
2021/11/09 13:09:08;;;;;;;;;;;14.30;99.90;;;;;;5038063;28;747;-57
2021/11/09 13:11:40;;;;;;;;;;;14.30;99.90;;;;;;5037789;28;839;-57
2021/11/09 13:14:07;;;;;;;;;;;14.30;99.90;;;;;;5037462;28;1072;-57
2021/11/09 13:16:33;;;;;;;;;;;14.30;99.90;;;;;;5037022;28;1099;-57
2021/11/09 13:19:06;;;;;;;;;;;14.30;99.90;;;;;;5037612;28;916;-57
2021/11/09 13:21:39;;;;;;;;;;;14.30;99.90;;;;;;5037088;28;865;-57
2021/11/09 13:24:23;;;;;;;;;;;14.30;99.90;;;;;;5037483;28;1965;-57
2021/11/09 13:26:50;;;;;;;;;;;14.20;99.90;;;;;;5036991;28;1263;-57
2021/11/09 13:29:16;;;;;;;;;;;14.20;99.90;;;;;;5036549;28;992;-57
2021/11/09 13:31:42;;;;;;;;;;;14.20;99.90;;;;;;5037164;28;872;-57
2021/11/09 13:34:08;;;;;;;;;;;14.20;99.90;;;;;;5037171;28;897;-57
2021/11/09 13:36:34;;;;;;;;;;;14.20;99.90;;;;;;5037190;28;817;-57
2021/11/09 13:39:00;;;;;;;;;;;14.20;99.90;;;;;;5037219;28;845;-57
2021/11/09 13:41:30;;;;;;;;;;;14.20;99.90;;;;;;5033194;28;898;-57
2021/11/09 13:44:15;;;;;;;;;;;14.20;99.90;;;;;;5036585;28;1903;-57
2021/11/09 13:46:42;;;;;;;;;;;14.20;99.90;;;;;;5035650;28;1168;-57
2021/11/09 13:49:11;;;;;;;;;;;14.20;99.90;;;;;;5019403;28;1133;-57
2021/11/09 13:51:41;;;;;;;;;;;14.10;99.90;;;;;;5019847;28;1397;-57
2021/11/09 13:54:18;;;;;;;;;;;14.20;99.90;;;;;;5036851;28;827;-57
2021/11/09 13:56:46;;;;;;;;;;;14.10;99.90;;;;;;5036940;28;876;-57
2021/11/09 13:59:14;;;;;;;;;;;14.10;99.90;;;;;;5036464;28;828;-57
2021/11/09 14:01:52;;;;;;;;;;;14.10;99.90;;;;;;5036461;28;750;-57
2021/11/09 14:05:01;;;;;;;;;;;14.10;99.90;;;;;;5036263;28;1894;-57
2021/11/09 14:18:15;;;;;;;;;;;14.10;99.90;;;;;;5036417;28;809;-57
2021/11/09 14:20:55;;;;;;;;;;;14.00;99.90;;;;;;5036024;28;838;-57
2021/11/09 14:23:31;;;;;;;;;;;14.00;99.90;;;;;;5035907;28;1915;-57
2021/11/09 14:25:58;;;;;;;;;;;14.00;99.90;;;;;;5036537;28;854;-57
2021/11/09 14:28:35;;;;;;;;;;;14.00;99.90;;;;;;5036466;28;867;-57
2021/11/09 14:31:18;;;;;;;;;;;14.00;99.90;;;;;;5035978;28;858;-57
2021/11/09 14:33:47;;;;;;;;;;;14.00;99.90;;;;;;5034030;28;880;-57
2021/11/09 14:36:20;;;;;;;;;;;14.00;99.90;;;;;;5035844;28;947;-57
2021/11/09 14:38:46;;;;;;;;;;;14.00;99.90;;;;;;5035560;28;811;-57
2021/11/09 14:41:23;;;;;;;;;;;14.00;99.90;;;;;;5036068;28;826;-57
2021/11/09 14:43:57;;;;;;;;;;;14.00;99.90;;;;;;5035857;28;1955;-57
2021/11/09 14:46:27;;;;;;;;;;;13.90;99.90;;;;;;5034127;28;838;-57
2021/11/09 14:49:04;;;;;;;;;;;13.80;99.90;;;;;;5035845;28;1114;-57
2021/11/09 14:51:31;;;;;;;;;;;13.80;99.90;;;;;;5035640;28;856;-57
2021/11/09 14:54:13;;;;;;;;;;;13.80;99.90;;;;;;5035210;28;1158;-56
2021/11/09 14:56:40;;;;;;;;;;;13.80;99.90;;;;;;5019806;28;1445;-56
2021/11/09 14:59:10;;;;;;;;;;;13.70;99.90;;;;;;5035511;28;1058;-56
2021/11/09 15:01:43;;;;;;;;;;;13.70;99.90;;;;;;5040186;28;1575;-56
2021/11/09 15:04:21;;;;;;;;;;;13.70;99.90;;;;;;5035780;28;1910;-56
2021/11/09 15:28:27;;;;;;;;;;;13.50;99.90;;;;;;5039250;28;1037;-56
2021/11/09 15:31:08;;;;;;;;;;;13.40;99.90;;;;;;5031375;28;1620;-56
2021/11/09 15:33:48;;;;;;;;;;;13.40;99.90;;;;;;5039429;28;1029;-56
2021/11/09 15:38:40;;;;;;;;;;;13.40;99.90;;;;;;5039450;28;823;-56
2021/11/09 15:41:06;;;;;;;;;;;13.40;99.90;;;;;;5039635;28;789;-56
2021/11/09 15:43:33;;;;;;;;;;;13.50;99.90;;;;;;5039250;28;1899;-56
2021/11/09 15:46:00;;;;;;;;;;;13.50;99.90;;;;;;5038872;28;1032;-56
2021/11/09 15:48:26;;;;;;;;;;;13.50;99.90;;;;;;5036498;28;1135;-56
2021/11/09 15:50:53;;;;;;;;;;;13.50;99.90;;;;;;5039297;28;889;-56
2021/11/09 15:53:19;;;;;;;;;;;13.60;99.90;;;;;;5039072;28;859;-56
2021/11/09 15:55:45;;;;;;;;;;;13.60;99.90;;;;;;5039171;28;857;-57
2021/11/09 15:58:11;;;;;;;;;;;13.70;99.90;;;;;;5037766;28;1183;-57
2021/11/09 16:00:38;;;;;;;;;;;13.90;99.90;;;;;;5038350;28;1301;-57
2021/11/09 16:03:04;;;;;;;;;;;14.10;99.90;;;;;;5038675;28;1903;-57
2021/11/09 16:05:32;;;;;;;;;;;14.40;99.90;;;;;;5038558;28;1033;-57
2021/11/09 16:07:58;;;;;;;;;;;14.50;99.90;;;;;;5038291;28;963;-57
2021/11/09 16:10:24;;;;;;;;;;;14.70;99.90;;;;;;5038862;28;865;-57
2021/11/09 16:12:50;;;;;;;;;;;14.80;99.90;;;;;;5038734;28;863;-57
2021/11/09 16:15:16;;;;;;;;;;;14.90;99.90;;;;;;5037134;28;1336;-57
2021/11/09 16:17:42;;;;;;;;;;;15.00;99.90;;;;;;5038571;28;1052;-57
2021/11/09 16:20:11;;;;;;;;;;;15.10;99.90;;;;;;5037550;28;1194;-57
2021/11/09 16:22:38;;;;;;;;;;;15.20;99.90;;;;;;5037881;28;1905;-57
2021/11/09 16:25:06;;;;;;;;;;;15.30;99.90;;;;;;5038452;28;1217;-56
2021/11/09 16:27:33;;;;;;;;;;;15.40;99.90;;;;;;5020064;28;1255;-58
2021/11/09 16:30:00;;;;;;;;;;;15.40;99.90;;;;;;5020360;28;1294;-57
2021/11/09 16:32:28;;;;;;;;;;;15.50;99.90;;;;;;5037442;28;1093;-57
2021/11/09 16:35:06;;;;;;;;;;;15.50;99.90;;;;;;5038670;28;893;-57
2021/11/09 16:37:33;;;;;;;;;;;15.50;99.90;;;;;;5037570;28;1092;-57
2021/11/09 16:40:07;;;;;;;;;;;15.50;99.90;;;;;;5037652;28;1010;-57
2021/11/09 16:42:37;;;;;;;;;;;15.60;99.90;;;;;;5038536;28;1890;-57
2021/11/09 16:45:05;;;;;;;;;;;15.50;99.90;;;;;;5037788;28;828;-57
2021/11/09 16:47:31;;;;;;;;;;;15.60;99.90;;;;;;5037474;28;830;-57
2021/11/09 16:52:26;;;;;;;;;;;15.70;99.90;;;;;;5037522;28;1062;-57
2021/11/09 16:55:16;;;;;;;;;;;15.70;99.90;;;;;;5037508;28;1467;-57
2021/11/09 17:00:48;;;;;;;;;;;15.60;99.90;;;;;;4980764;28;1288;-57
2021/11/09 18:21:40;;;;;;;;;;;15.30;99.90;;;;;;5036395;28;799;-57
2021/11/09 18:24:06;;;;;;;;;;;15.30;99.90;;;;;;5036375;28;1918;-56
2021/11/09 18:26:32;;;;;;;;;;;15.40;99.90;;;;;;5018630;28;1001;-56
2021/11/09 18:28:58;;;;;;;;;;;15.40;99.90;;;;;;5035510;28;890;-56
2021/11/09 18:31:25;;;;;;;;;;;15.50;99.90;;;;;;5035965;28;833;-57
2021/11/09 18:33:51;;;;;;;;;;;15.50;99.90;;;;;;5035840;28;1019;-57
2021/11/09 18:36:17;;;;;;;;;;;15.40;99.90;;;;;;5036064;28;908;-57
2021/11/09 18:38:43;;;;;;;;;;;15.40;99.90;;;;;;5035771;28;1031;-57
2021/11/09 18:41:09;;;;;;;;;;;15.40;99.90;;;;;;5035713;28;1040;-56
2021/11/09 18:43:37;;;;;;;;;;;15.30;99.90;;;;;;5035612;28;1965;-56
2021/11/09 18:46:04;;;;;;;;;;;15.30;99.90;;;;;;5035291;28;898;-56
2021/11/09 18:48:30;;;;;;;;;;;15.30;99.90;;;;;;5034600;28;1028;-57
2021/11/09 18:51:04;;;;;;;;;;;15.20;99.90;;;;;;5035985;28;841;-57
2021/11/09 18:53:33;;;;;;;;;;;15.20;99.90;;;;;;5036148;28;778;-57
2021/11/09 18:56:00;;;;;;;;;;;15.20;99.90;;;;;;5034847;28;1097;-57
2021/11/09 18:58:27;;;;;;;;;;;15.20;99.90;;;;;;5034973;28;1557;-57
2021/11/09 19:01:02;;;;;;;;;;;15.30;99.90;;;;;;5035706;28;831;-57
2021/11/09 19:03:29;;;;;;;;;;;15.30;99.90;;;;;;4985414;28;1903;-57
2021/11/09 19:05:58;;;;;;;;;;;15.40;99.90;;;;;;5035436;28;845;-57
2021/11/09 19:08:29;;;;;;;;;;;15.40;99.90;;;;;;5032245;28;982;-57